Time;durP1;ratioP1;P1;durP2;ratioP2;P2;SDS_P1;SDS_P2;PMS_P1;PMS_P2;Temp;Humidity;BMP_temperature;BMP_pressure;BME280_temperature;BME280_humidity;BME280_pressure;Samples;Min_cycle;Max_cycle;Signal;HPM_P1;HPM_P2
2023/10/19 00:16:39;;;;;;;61.22;41.67;;;17.50;83.30;;;;;;4547268;19;19997;31
2023/10/19 00:22:01;;;;;;;65.75;40.88;;;17.50;82.80;;;;;;4591888;19;20094;-71
2023/10/19 00:23:39;;;;;;;61.53;40.10;;;17.50;82.70;;;;;;4591236;19;20005;-71
2023/10/19 00:25:14;;;;;;;77.68;44.10;;;17.50;82.70;;;;;;4592182;19;20010;-71
2023/10/19 00:26:55;;;;;;;76.32;46.33;;;17.50;82.80;;;;;;4590740;19;20011;-71
2023/10/19 00:28:29;;;;;;;;;;;17.50;82.70;;;;;;4593023;19;20074;-71
2023/10/19 00:30:08;;;;;;;85.50;47.83;;;17.50;82.90;;;;;;4592369;19;19911;-71
2023/10/19 00:31:42;;;;;;;86.05;47.17;;;17.50;82.80;;;;;;4592333;19;20006;-71
2023/10/19 00:33:21;;;;;;;92.60;48.58;;;17.50;82.90;;;;;;4591023;19;20007;-71
2023/10/19 00:34:55;;;;;;;95.45;49.85;;;17.40;82.90;;;;;;4592009;19;20411;-71
2023/10/19 00:36:31;;;;;;;99.75;53.95;;;17.40;83.00;;;;;;4592471;19;20003;-71
2023/10/19 00:40:33;;;;;;;89.20;45.28;;;17.40;83.40;;;;;;4590470;19;20387;-71
2023/10/19 00:42:09;;;;;;;72.90;44.72;;;17.40;83.60;;;;;;4590810;19;20033;-71
2023/10/19 00:43:44;;;;;;;73.85;44.47;;;17.40;83.70;;;;;;4591832;19;20013;-71
2023/10/19 00:45:24;;;;;;;105.07;54.75;;;17.40;83.80;;;;;;4591958;19;20010;-71
2023/10/19 00:47:11;;;;;;;102.25;55.97;;;17.40;83.90;;;;;;4590393;19;20038;-71
2023/10/19 00:49:00;;;;;;;109.35;59.58;;;17.40;83.70;;;;;;4591860;19;20010;-71
2023/10/19 00:50:35;;;;;;;121.80;66.38;;;17.40;83.60;;;;;;4591956;19;20320;-71
2023/10/19 00:52:12;;;;;;;115.05;65.38;;;17.40;83.40;;;;;;4590812;19;20422;-71
2023/10/19 00:53:48;;;;;;;100.38;54.40;;;17.40;83.20;;;;;;4591591;19;20003;-71
2023/10/19 00:55:25;;;;;;;91.18;50.97;;;17.40;83.20;;;;;;4590225;19;20002;-71
2023/10/19 00:57:06;;;;;;;96.40;52.97;;;17.40;83.20;;;;;;4590172;19;20070;-71
2023/10/19 00:58:47;;;;;;;90.65;50.10;;;17.40;83.20;;;;;;4591796;19;19999;-71
2023/10/19 01:00:29;;;;;;;111.63;58.00;;;17.40;83.30;;;;;;4591813;19;20444;-71
2023/10/19 01:02:17;;;;;;;112.00;61.50;;;17.40;83.40;;;;;;4590347;19;20010;-71
2023/10/19 01:03:56;;;;;;;114.97;60.90;;;17.40;83.20;;;;;;4591615;19;20082;-71
2023/10/19 01:05:37;;;;;;;98.28;55.58;;;17.40;83.10;;;;;;4591782;19;20342;-71
2023/10/19 01:07:15;;;;;;;102.45;55.65;;;17.40;83.20;;;;;;4591273;19;20291;-71
2023/10/19 01:08:51;;;;;;;91.82;53.58;;;17.30;83.00;;;;;;4591983;19;20034;-71
2023/10/19 01:10:25;;;;;;;99.35;59.13;;;17.40;83.20;;;;;;4590313;19;20058;-71
2023/10/19 01:13:58;;;;;;;110.28;58.97;;;17.40;83.10;;;;;;4590543;19;20003;-71
2023/10/19 01:15:36;;;;;;;110.07;57.28;;;17.40;83.10;;;;;;4590643;19;20318;-71
2023/10/19 01:17:11;;;;;;;134.68;66.20;;;17.30;83.00;;;;;;4589769;19;20353;-71
2023/10/19 01:18:58;;;;;;;127.13;64.32;;;17.40;82.90;;;;;;4591252;19;20013;-71
2023/10/19 01:22:06;;;;;;;117.15;62.30;;;17.40;83.40;;;;;;4590295;19;20322;-71
2023/10/19 01:23:44;;;;;;;102.95;54.72;;;17.40;82.90;;;;;;4591517;19;20327;-71
2023/10/19 01:25:20;;;;;;;86.30;48.63;;;17.40;83.00;;;;;;4591479;19;20006;-71
2023/10/19 01:26:54;;;;;;;76.05;47.20;;;17.30;82.90;;;;;;4591377;19;20013;-71
2023/10/19 01:28:47;;;;;;;74.80;44.20;;;17.40;82.80;;;;;;4591649;19;20047;-71
2023/10/19 01:30:27;;;;;;;77.60;45.58;;;17.40;82.80;;;;;;4590173;19;20002;-71
2023/10/19 01:32:08;;;;;;;67.50;42.85;;;17.30;82.80;;;;;;4591225;19;20040;-71
2023/10/19 01:33:46;;;;;;;70.18;41.35;;;17.30;82.80;;;;;;4595141;19;20013;-71
2023/10/19 01:35:20;;;;;;;64.72;39.15;;;17.30;82.90;;;;;;4595016;19;20014;-71
2023/10/19 01:36:55;;;;;;;59.75;37.25;;;17.30;82.70;;;;;;4595421;19;19994;-71
2023/10/19 01:38:33;;;;;;;59.08;38.00;;;17.30;82.70;;;;;;4596144;19;20300;-71
2023/10/19 01:40:08;;;;;;;62.95;40.53;;;17.30;82.80;;;;;;4594529;19;20006;-71
2023/10/19 01:41:42;;;;;;;69.68;42.55;;;17.30;82.70;;;;;;4595435;19;20006;-71
2023/10/19 01:43:21;;;;;;;67.88;42.85;;;17.30;82.60;;;;;;4595781;19;20093;-71
2023/10/19 01:44:55;;;;;;;67.55;41.65;;;17.30;82.50;;;;;;4594447;19;20026;-71
2023/10/19 01:46:39;;;;;;;63.13;40.55;;;17.30;82.50;;;;;;4595367;19;20021;-71
2023/10/19 01:48:16;;;;;;;76.72;47.58;;;17.30;82.50;;;;;;4594291;19;20318;-71
2023/10/19 01:49:52;;;;;;;109.43;59.08;;;17.30;82.20;;;;;;4595348;19;20078;-71
2023/10/19 01:51:26;;;;;;;117.45;61.40;;;17.30;82.20;;;;;;4595788;19;20015;-71
2023/10/19 01:53:12;;;;;;;102.00;57.67;;;17.30;82.20;;;;;;4595545;19;20071;-71
2023/10/19 01:54:46;;;;;;;110.35;57.90;;;17.30;82.30;;;;;;4595235;19;20490;-71
2023/10/19 01:56:21;;;;;;;95.70;54.47;;;17.30;82.40;;;;;;4595420;19;20009;-71
2023/10/19 01:57:56;;;;;;;96.78;53.30;;;17.30;82.30;;;;;;4593941;19;20010;-71
2023/10/19 01:59:30;;;;;;;87.13;47.60;;;17.30;82.50;;;;;;4595373;19;20022;-71
2023/10/19 02:02:50;;;;;;;69.28;43.10;;;17.30;82.50;;;;;;4594300;19;20013;-71
2023/10/19 02:04:25;;;;;;;74.22;44.83;;;17.30;82.50;;;;;;4593944;19;20093;-71
2023/10/19 02:06:00;;;;;;;77.97;47.15;;;17.30;82.50;;;;;;4595181;19;20017;-71
2023/10/19 02:07:35;;;;;;;82.80;47.92;;;17.30;82.30;;;;;;4594403;19;20010;-71
2023/10/19 02:09:32;;;;;;;83.50;47.05;;;17.30;82.20;;;;;;4595163;19;20013;-71
2023/10/19 02:11:17;;;;;;;76.20;46.10;;;17.30;82.30;;;;;;4593944;19;20009;-71
2023/10/19 02:12:55;;;;;;;75.32;45.85;;;17.30;82.20;;;;;;4593894;19;20011;-71
2023/10/19 02:14:34;;;;;;;77.93;46.72;;;17.30;82.20;;;;;;4594848;19;20103;-71
2023/10/19 02:16:10;;;;;;;82.72;48.00;;;17.30;82.20;;;;;;4592313;19;20086;-71
2023/10/19 02:17:44;;;;;;;78.97;47.38;;;17.30;82.20;;;;;;4593189;19;20022;-71
2023/10/19 02:19:22;;;;;;;74.20;43.83;;;17.30;82.30;;;;;;4595279;19;20002;-71
2023/10/19 02:20:58;;;;;;;73.93;46.10;;;17.30;82.30;;;;;;4593948;19;20006;-71
2023/10/19 02:22:34;;;;;;;78.05;48.50;;;17.30;82.10;;;;;;4594689;19;20003;-71
2023/10/19 02:24:09;;;;;;;78.45;47.35;;;17.30;82.10;;;;;;4594956;19;20013;-71
2023/10/19 02:25:46;;;;;;;76.53;48.10;;;17.30;81.90;;;;;;4593477;19;20020;-71
2023/10/19 02:27:22;;;;;;;78.43;47.25;;;17.30;81.80;;;;;;4593937;19;20006;-71
2023/10/19 02:28:56;;;;;;;73.35;46.30;;;17.30;81.60;;;;;;4595136;19;20069;-71
2023/10/19 02:30:33;;;;;;;74.20;44.58;;;17.30;81.60;;;;;;4594804;19;20006;-71
2023/10/19 02:32:07;;;;;;;73.32;43.72;;;17.30;81.70;;;;;;4594794;19;20006;-71
2023/10/19 02:33:58;;;;;;;67.53;43.30;;;17.30;82.40;;;;;;4593584;19;20002;-71
2023/10/19 02:35:37;;;;;;;68.63;42.03;;;17.30;81.90;;;;;;4592788;19;20010;-71
2023/10/19 02:37:12;;;;;;;69.07;42.67;;;17.30;81.70;;;;;;4593985;19;20002;-71
2023/10/19 02:38:49;;;;;;;68.95;41.42;;;17.20;81.90;;;;;;4594861;19;20002;-71
2023/10/19 02:40:25;;;;;;;66.47;44.03;;;17.20;81.80;;;;;;4593279;19;20020;-71
2023/10/19 02:42:02;;;;;;;73.18;44.35;;;17.30;81.60;;;;;;4594349;19;20014;-71
2023/10/19 02:43:38;;;;;;;75.47;43.92;;;17.30;81.50;;;;;;4593440;19;20002;-71
2023/10/19 02:45:15;;;;;;;67.60;41.30;;;17.30;81.60;;;;;;4593257;19;20006;-71
2023/10/19 02:47:08;;;;;;;69.70;42.80;;;17.20;81.50;;;;;;4594126;19;20002;-71
2023/10/19 02:48:44;;;;;;;67.15;40.53;;;17.30;81.60;;;;;;4593009;19;20006;-71
2023/10/19 02:50:23;;;;;;;69.53;41.92;;;17.20;81.50;;;;;;4594331;19;20022;-71
2023/10/19 02:52:02;;;;;;;66.20;41.85;;;17.20;81.30;;;;;;4594644;19;20023;-71
2023/10/19 02:53:39;;;;;;;65.77;40.93;;;17.30;81.30;;;;;;4594343;19;20312;-71
2023/10/19 02:55:20;;;;;;;62.10;40.75;;;17.20;81.20;;;;;;4592617;19;20003;-71
2023/10/19 02:56:56;;;;;;;59.58;39.47;;;17.20;81.30;;;;;;4593595;19;20329;-71
2023/10/19 02:58:32;;;;;;;56.08;38.83;;;17.20;81.40;;;;;;4592975;19;20011;-71
2023/10/19 03:00:11;;;;;;;55.13;36.80;;;17.20;81.40;;;;;;4593923;19;20030;-71
2023/10/19 03:01:45;;;;;;;61.83;39.20;;;17.20;81.50;;;;;;4592937;19;20068;-71
2023/10/19 03:03:19;;;;;;;54.92;34.85;;;17.30;81.60;;;;;;4593718;19;19999;-71
2023/10/19 03:04:57;;;;;;;50.08;34.65;;;17.30;81.70;;;;;;4594019;19;20436;-71
2023/10/19 03:06:32;;;;;;;42.25;28.83;;;17.30;81.70;;;;;;4594050;19;20020;-71
2023/10/19 03:08:07;;;;;;;44.45;27.45;;;17.30;82.00;;;;;;4594351;19;20006;-71
2023/10/19 03:10:05;;;;;;;43.25;29.52;;;17.30;82.20;;;;;;4594224;19;20029;-71
2023/10/19 03:11:38;;;;;;;41.35;27.20;;;17.20;82.10;;;;;;4593839;19;20013;-71
2023/10/19 03:13:15;;;;;;;31.13;24.05;;;17.30;82.30;;;;;;4593911;19;20079;-71
2023/10/19 03:14:54;;;;;;;31.52;23.55;;;17.30;82.40;;;;;;4592440;19;20030;-71
2023/10/19 03:16:30;;;;;;;28.48;22.33;;;17.30;82.60;;;;;;4593403;19;20002;-71
2023/10/19 03:18:06;;;;;;;25.83;20.23;;;17.30;82.70;;;;;;4592349;19;20015;-71
2023/10/19 03:19:42;;;;;;;26.50;20.58;;;17.30;82.80;;;;;;4593866;19;20465;-71
2023/10/19 03:21:19;;;;;;;30.08;19.98;;;17.30;82.90;;;;;;4593749;19;20002;-71
2023/10/19 03:22:53;;;;;;;25.90;19.33;;;17.30;83.10;;;;;;4592457;19;19998;-71
2023/10/19 03:24:36;;;;;;;25.30;19.60;;;17.20;83.30;;;;;;4593746;19;20039;-71
2023/10/19 03:26:33;;;;;;;25.50;20.95;;;17.30;83.50;;;;;;4593583;19;20070;-71
2023/10/19 03:28:11;;;;;;;24.75;20.50;;;17.20;83.50;;;;;;4593963;19;20035;-71
2023/10/19 03:29:53;;;;;;;23.73;19.02;;;17.30;83.70;;;;;;4593878;19;20014;-71
2023/10/19 03:31:28;;;;;;;25.55;19.75;;;17.30;83.80;;;;;;4593595;19;20497;-71
2023/10/19 03:33:03;;;;;;;25.52;19.95;;;17.30;84.10;;;;;;4593729;19;19995;-71
2023/10/19 03:34:38;;;;;;;26.10;20.33;;;17.20;84.10;;;;;;4593519;19;20006;-71
2023/10/19 03:36:13;;;;;;;23.33;18.92;;;17.20;84.00;;;;;;4592224;19;20003;-71
2023/10/19 03:37:51;;;;;;;24.05;19.40;;;17.30;84.10;;;;;;4592371;19;20014;-71
2023/10/19 03:39:28;;;;;;;23.92;19.30;;;17.30;84.10;;;;;;4593327;19;20006;-71
2023/10/19 03:41:06;;;;;;;23.20;18.52;;;17.20;84.20;;;;;;4593319;19;19999;-71
2023/10/19 03:42:46;;;;;;;24.38;19.00;;;17.20;84.30;;;;;;4593599;19;20014;-71
2023/10/19 03:44:40;;;;;;;26.77;20.10;;;17.30;84.40;;;;;;4593608;19;20007;-70
2023/10/19 03:46:37;;;;;;;26.30;21.50;;;17.30;84.50;;;;;;4593554;19;20002;-71
2023/10/19 03:48:16;;;;;;;22.13;18.17;;;17.30;84.50;;;;;;4591796;19;20021;-71
2023/10/19 03:49:53;;;;;;;25.30;19.30;;;17.40;84.30;;;;;;4593152;19;20066;-71
2023/10/19 03:51:39;;;;;;;23.70;19.70;;;17.50;84.20;;;;;;4593127;19;20006;-71
2023/10/19 03:53:13;;;;;;;24.50;19.50;;;17.60;84.00;;;;;;4593105;19;20006;-70
2023/10/19 03:54:49;;;;;;;23.38;19.17;;;17.70;83.80;;;;;;4593379;19;20006;-71
2023/10/19 03:56:23;;;;;;;26.30;19.58;;;17.80;83.60;;;;;;4589795;19;20026;-73
2023/10/19 03:57:58;;;;;;;27.38;21.05;;;17.80;83.30;;;;;;4591639;19;20023;-71
2023/10/19 03:59:34;;;;;;;30.75;23.23;;;17.90;83.10;;;;;;4592732;19;20044;-71
2023/10/19 04:01:09;;;;;;;32.00;24.08;;;18.00;82.90;;;;;;4592964;19;19998;-71
2023/10/19 04:02:43;;;;;;;28.48;21.80;;;18.00;82.70;;;;;;4593129;19;20009;-71
2023/10/19 04:04:20;;;;;;;28.90;23.17;;;18.00;82.60;;;;;;4592942;19;20006;-72
2023/10/19 04:05:54;;;;;;;28.75;21.48;;;18.00;82.60;;;;;;4592892;19;20006;-71
2023/10/19 04:07:31;;;;;;;25.95;20.38;;;18.10;82.40;;;;;;4592148;19;20026;-72
2023/10/19 04:09:07;;;;;;;29.00;22.35;;;18.10;82.30;;;;;;4591494;19;20314;-72
2023/10/19 04:10:44;;;;;;;25.05;20.40;;;18.10;82.20;;;;;;4592667;19;19999;-72
2023/10/19 04:12:18;;;;;;;29.23;20.50;;;18.10;82.20;;;;;;4592764;19;20031;-73
2023/10/19 04:13:55;;;;;;;26.65;19.52;;;18.10;83.30;;;;;;4592659;19;20006;-71
2023/10/19 04:15:33;;;;;;;27.55;21.77;;;18.20;82.30;;;;;;4592338;19;20003;-71
2023/10/19 04:17:12;;;;;;;26.42;19.52;;;18.20;82.40;;;;;;4590579;19;20081;-72
2023/10/19 04:18:47;;;;;;;27.13;21.02;;;18.20;82.60;;;;;;4592316;19;20007;-72
2023/10/19 04:20:29;;;;;;;23.33;19.77;;;18.20;82.40;;;;;;4592594;19;20003;-72
2023/10/19 04:22:04;;;;;;;;;;;18.20;82.20;;;;;;4593659;19;20006;-72
2023/10/19 04:23:39;;;;;;;26.73;19.40;;;18.20;82.50;;;;;;4592874;19;20214;-72
2023/10/19 04:25:14;;;;;;;24.52;19.35;;;18.10;82.50;;;;;;4592469;19;20005;-72
2023/10/19 04:26:49;;;;;;;24.83;19.90;;;18.10;82.40;;;;;;4592540;19;20006;-72
2023/10/19 04:28:30;;;;;;;26.83;19.67;;;18.10;82.60;;;;;;4592413;19;20434;-72
2023/10/19 04:30:05;;;;;;;24.50;18.98;;;18.10;82.70;;;;;;4592727;19;20006;-72
2023/10/19 04:31:54;;;;;;;23.40;18.77;;;18.00;82.80;;;;;;4590961;19;20422;-72
2023/10/19 04:33:32;;;;;;;21.03;16.97;;;18.10;83.00;;;;;;4591480;19;20029;-72
2023/10/19 04:35:09;;;;;;;21.17;16.48;;;18.00;83.10;;;;;;4590756;19;20883;-72
2023/10/19 04:36:44;;;;;;;23.80;16.83;;;18.00;83.30;;;;;;4590880;19;20043;-72
2023/10/19 04:38:20;;;;;;;20.85;17.52;;;18.00;83.50;;;;;;4592279;19;20006;-72
2023/10/19 04:39:54;;;;;;;21.55;17.02;;;18.00;83.50;;;;;;4592470;19;20066;-72
2023/10/19 04:41:29;;;;;;;21.80;17.15;;;18.00;83.70;;;;;;4592081;19;20006;-72
2023/10/19 04:43:07;;;;;;;23.30;17.52;;;18.00;83.80;;;;;;4592476;19;20006;-72
2023/10/19 04:44:43;;;;;;;21.63;15.23;;;18.00;83.90;;;;;;4591066;19;20006;-72
2023/10/19 04:46:18;;;;;;;24.45;16.90;;;17.90;84.30;;;;;;4591734;19;20434;-72
2023/10/19 04:47:54;;;;;;;20.45;16.85;;;17.90;83.90;;;;;;4591076;19;20006;-71
2023/10/19 04:49:29;;;;;;;25.70;20.10;;;17.90;84.10;;;;;;4590727;19;20070;-72
2023/10/19 04:51:09;;;;;;;23.58;19.27;;;17.90;84.00;;;;;;4591887;19;19998;-72
2023/10/19 04:52:45;;;;;;;24.10;17.63;;;17.90;84.10;;;;;;4590824;19;20007;-73
2023/10/19 04:54:19;;;;;;;21.80;18.30;;;17.90;84.10;;;;;;4590893;19;20026;-72
2023/10/19 04:55:54;;;;;;;22.58;17.48;;;17.90;84.00;;;;;;4590672;19;19998;-71
2023/10/19 04:57:30;;;;;;;22.25;18.20;;;17.80;83.90;;;;;;4591166;19;20094;-71
2023/10/19 04:59:05;;;;;;;23.33;17.92;;;17.90;83.90;;;;;;4591843;19;20007;-71
2023/10/19 05:00:43;;;;;;;20.75;16.98;;;17.80;83.90;;;;;;4591905;19;20023;-71
2023/10/19 05:02:19;;;;;;;22.20;16.92;;;17.80;83.90;;;;;;4592127;19;20010;-72
2023/10/19 05:03:54;;;;;;;21.38;17.13;;;17.80;84.00;;;;;;4591746;19;20003;-72
2023/10/19 05:05:28;;;;;;;20.13;16.80;;;17.80;84.00;;;;;;4592028;19;20493;-71
2023/10/19 05:07:12;;;;;;;22.05;17.25;;;17.80;84.00;;;;;;4590505;19;20032;-72
2023/10/19 05:09:43;;;;;;;21.42;17.40;;;17.80;84.10;;;;;;4596132;19;20009;-72
2023/10/19 05:11:37;;;;;;;21.23;16.15;;;17.80;84.10;;;;;;4594094;19;20011;-72
2023/10/19 05:13:13;;;;;;;22.30;17.98;;;17.80;84.00;;;;;;4593991;19;20010;-71
2023/10/19 05:14:48;;;;;;;21.95;17.80;;;17.70;83.80;;;;;;4592287;19;20010;-70
2023/10/19 05:16:22;;;;;;;24.40;17.48;;;17.80;84.00;;;;;;4593000;19;19999;-72
2023/10/19 05:17:57;;;;;;;24.88;18.20;;;17.70;83.90;;;;;;4594234;19;20018;-72
2023/10/19 05:19:34;;;;;;;21.85;17.90;;;17.70;83.80;;;;;;4596177;19;20062;-72
2023/10/19 05:21:10;;;;;;;22.48;16.83;;;17.70;83.90;;;;;;4596189;19;20023;-72
2023/10/19 05:22:45;;;;;;;22.60;17.35;;;17.70;83.90;;;;;;4596159;19;19999;-72
2023/10/19 05:24:19;;;;;;;23.55;18.15;;;17.70;84.00;;;;;;4596048;19;20006;-72
2023/10/19 05:26:02;;;;;;;26.52;19.40;;;17.70;83.90;;;;;;4596344;19;20003;-70
2023/10/19 05:27:39;;;;;;;25.35;18.98;;;17.70;83.90;;;;;;4593708;19;20411;-72
2023/10/19 05:29:13;;;;;;;28.58;19.27;;;17.70;83.80;;;;;;4594764;19;20042;-72
2023/10/19 05:30:49;;;;;;;23.35;17.50;;;17.60;83.80;;;;;;4595659;19;20058;-72
2023/10/19 05:32:24;;;;;;;20.65;16.55;;;17.70;83.80;;;;;;4594931;19;20438;-72
2023/10/19 05:33:58;;;;;;;21.55;17.75;;;17.70;83.90;;;;;;4595622;19;20009;-72
2023/10/19 05:35:35;;;;;;;20.88;16.70;;;17.70;84.00;;;;;;4595354;19;20430;-72
2023/10/19 05:37:13;;;;;;;22.73;16.52;;;17.70;84.00;;;;;;4593820;19;20027;-72
2023/10/19 05:38:48;;;;;;;22.58;17.25;;;17.70;84.10;;;;;;4595792;19;20009;-72
2023/10/19 05:40:23;;;;;;;22.75;17.15;;;17.70;84.10;;;;;;4596020;19;20009;-72
2023/10/19 05:42:02;;;;;;;21.08;15.82;;;17.80;84.20;;;;;;4595796;19;20021;-72
2023/10/19 05:43:38;;;;;;;22.52;16.38;;;17.80;84.10;;;;;;4595667;19;20007;-72
2023/10/19 05:45:17;;;;;;;24.13;17.63;;;17.90;84.00;;;;;;4595882;19;20315;-72
2023/10/19 05:46:52;;;;;;;20.88;15.82;;;18.00;84.10;;;;;;4594142;19;20026;-72
2023/10/19 05:48:26;;;;;;;20.48;16.00;;;18.10;84.10;;;;;;4595277;19;19998;-72
2023/10/19 05:50:00;;;;;;;21.73;16.77;;;18.20;84.10;;;;;;4595773;19;20003;-72
2023/10/19 05:51:36;;;;;;;20.30;17.88;;;18.30;83.90;;;;;;4595586;19;20443;-72
2023/10/19 05:53:10;;;;;;;23.10;18.35;;;18.40;84.00;;;;;;4595447;19;20022;-72
2023/10/19 05:54:44;;;;;;;21.80;16.08;;;18.50;84.00;;;;;;4595438;19;20006;-72
2023/10/19 05:56:21;;;;;;;21.48;17.25;;;18.50;83.90;;;;;;4592865;19;20003;-72
2023/10/19 05:57:55;;;;;;;20.50;16.52;;;18.60;83.90;;;;;;4593548;19;20025;-72
2023/10/19 05:59:33;;;;;;;20.77;15.90;;;18.60;83.90;;;;;;4593921;19;20027;-72
2023/10/19 06:01:10;;;;;;;;;;;18.70;84.00;;;;;;4595207;19;20017;-72
2023/10/19 06:02:48;;;;;;;20.00;15.98;;;18.70;84.30;;;;;;4595152;19;19931;-72
2023/10/19 06:04:23;;;;;;;19.52;14.75;;;18.70;84.10;;;;;;4594239;19;20006;-72
2023/10/19 06:05:58;;;;;;;18.77;15.20;;;18.80;84.10;;;;;;4595266;19;20034;-72
2023/10/19 06:07:32;;;;;;;19.48;15.10;;;18.80;84.10;;;;;;4594081;19;20306;-72
2023/10/19 06:09:11;;;;;;;18.15;15.23;;;18.90;84.30;;;;;;4595068;19;20290;-72
2023/10/19 06:10:53;;;;;;;17.88;14.68;;;18.90;84.20;;;;;;4595174;19;20011;-72
2023/10/19 06:12:27;;;;;;;19.70;15.57;;;18.90;84.10;;;;;;4593419;19;20449;-72
2023/10/19 06:14:02;;;;;;;19.05;15.30;;;19.00;84.00;;;;;;4594717;19;20003;-72
2023/10/19 06:15:38;;;;;;;17.20;14.88;;;19.00;84.30;;;;;;4594257;19;20070;-72
2023/10/19 06:17:18;;;;;;;19.02;15.32;;;19.00;84.40;;;;;;4592788;19;20017;-72
2023/10/19 06:18:54;;;;;;;19.98;16.23;;;19.00;84.50;;;;;;4592038;19;20035;-72
2023/10/19 06:20:29;;;;;;;15.77;13.20;;;18.90;84.50;;;;;;4594706;19;20013;-72
2023/10/19 06:22:04;;;;;;;16.13;13.90;;;18.90;84.70;;;;;;4595092;19;20002;-72
2023/10/19 06:23:40;;;;;;;18.92;14.05;;;18.90;84.80;;;;;;4594863;19;20006;-72
2023/10/19 06:25:17;;;;;;;18.42;13.85;;;18.90;85.00;;;;;;4594850;19;20065;-71
2023/10/19 06:26:52;;;;;;;15.88;13.45;;;18.90;85.10;;;;;;4594458;19;20018;-72
2023/10/19 06:28:27;;;;;;;15.23;13.18;;;18.80;85.20;;;;;;4593437;19;20003;-72
2023/10/19 06:30:03;;;;;;;15.63;13.80;;;18.80;85.30;;;;;;4593765;19;20429;-72
2023/10/19 06:31:37;;;;;;;15.95;12.88;;;18.70;85.30;;;;;;4594336;19;20430;-72
2023/10/19 06:33:12;;;;;;;16.45;13.48;;;18.70;85.50;;;;;;4593352;19;20010;-72
2023/10/19 06:34:48;;;;;;;17.15;13.10;;;18.70;85.80;;;;;;4594666;19;20007;-71
2023/10/19 06:36:21;;;;;;;15.95;13.63;;;18.70;85.80;;;;;;4593052;19;20018;-71
2023/10/19 06:37:56;;;;;;;17.45;12.88;;;18.70;86.00;;;;;;4592945;19;20403;-71
2023/10/19 06:39:32;;;;;;;17.70;13.00;;;18.60;86.10;;;;;;4594608;19;20022;-71
2023/10/19 06:41:18;;;;;;;17.55;12.52;;;18.60;86.30;;;;;;4594486;19;20062;-71
2023/10/19 06:43:02;;;;;;;18.38;14.07;;;18.60;86.60;;;;;;4593188;19;20006;-71
2023/10/19 06:44:38;;;;;;;15.80;12.95;;;18.60;86.70;;;;;;4593214;19;20034;-72
2023/10/19 06:46:12;;;;;;;16.63;12.68;;;18.60;87.30;;;;;;4594077;19;20006;-72
2023/10/19 06:47:47;;;;;;;16.67;12.10;;;18.50;86.80;;;;;;4593092;19;20010;-72
2023/10/19 06:49:24;;;;;;;17.05;12.63;;;18.50;87.10;;;;;;4593116;19;20007;-72
2023/10/19 06:50:58;;;;;;;16.00;13.45;;;18.50;87.10;;;;;;4593896;19;20006;-71
2023/10/19 06:52:32;;;;;;;18.23;12.93;;;18.40;87.40;;;;;;4594287;19;20291;-72
2023/10/19 06:54:09;;;;;;;16.95;13.35;;;18.40;87.50;;;;;;4593001;19;20007;-70
2023/10/19 06:55:43;;;;;;;17.90;13.18;;;18.40;87.60;;;;;;4593098;19;20002;-72
2023/10/19 06:57:18;;;;;;;15.93;12.55;;;18.40;87.70;;;;;;4593703;19;20040;-72
2023/10/19 06:58:53;;;;;;;16.52;13.85;;;18.40;87.90;;;;;;4594390;19;20006;-73
2023/10/19 07:00:27;;;;;;;25.40;20.42;;;18.40;87.90;;;;;;4592988;19;19999;-72
2023/10/19 07:02:01;;;;;;;26.63;21.23;;;18.40;87.90;;;;;;4593716;19;20002;-71
2023/10/19 07:03:36;;;;;;;24.17;17.98;;;18.40;88.20;;;;;;4594328;19;20021;-72
2023/10/19 07:05:13;;;;;;;24.10;19.58;;;18.40;88.40;;;;;;4592431;19;20002;-71
2023/10/19 07:06:47;;;;;;;19.15;16.13;;;18.40;88.40;;;;;;4593311;19;20299;-72
2023/10/19 07:08:23;;;;;;;19.48;15.50;;;18.40;88.60;;;;;;4594087;19;20355;-71
2023/10/19 07:09:58;;;;;;;18.60;14.10;;;18.40;88.70;;;;;;4594152;19;20303;-71
2023/10/19 07:11:35;;;;;;;20.92;13.85;;;18.40;88.80;;;;;;4594175;19;20005;-71
2023/10/19 07:13:11;;;;;;;18.55;13.18;;;18.30;88.90;;;;;;4592639;19;19998;-71
2023/10/19 07:14:46;;;;;;;17.55;14.45;;;18.30;89.00;;;;;;4592464;19;20010;-71
2023/10/19 07:16:20;;;;;;;19.38;13.38;;;18.30;89.20;;;;;;4592277;19;20015;-71
2023/10/19 07:17:58;;;;;;;14.95;13.25;;;18.30;89.30;;;;;;4592340;19;20018;-71
2023/10/19 07:19:32;;;;;;;17.13;13.23;;;18.30;89.50;;;;;;4593664;19;20003;-71
2023/10/19 07:21:09;;;;;;;15.63;12.30;;;18.30;89.60;;;;;;4593497;19;19999;-71
2023/10/19 07:22:45;;;;;;;16.50;12.90;;;18.20;89.60;;;;;;4593978;19;20023;-71
2023/10/19 07:24:19;;;;;;;17.25;12.82;;;18.20;89.70;;;;;;4593391;19;20005;-71
2023/10/19 07:25:59;;;;;;;19.92;14.35;;;18.20;89.90;;;;;;4591614;19;20006;-71
2023/10/19 07:27:36;;;;;;;18.60;13.80;;;18.20;89.90;;;;;;4592471;19;20010;-71
2023/10/19 07:29:14;;;;;;;17.70;12.90;;;18.20;90.00;;;;;;4592144;19;20009;-71
2023/10/19 07:30:51;;;;;;;17.23;13.60;;;18.20;90.00;;;;;;4593276;19;20027;-71
2023/10/19 07:32:29;;;;;;;20.15;15.38;;;18.20;90.10;;;;;;4593490;19;20025;-71
2023/10/19 07:34:03;;;;;;;18.75;14.90;;;18.20;90.10;;;;;;4593701;19;20015;-71
2023/10/19 07:35:38;;;;;;;19.88;15.52;;;18.10;90.20;;;;;;4591531;19;20006;-71
2023/10/19 07:37:16;;;;;;;30.50;20.10;;;18.10;90.20;;;;;;4592466;19;20011;-71
2023/10/19 07:38:51;;;;;;;35.10;21.27;;;18.10;90.30;;;;;;4593193;19;20095;-71
2023/10/19 07:40:26;;;;;;;32.05;21.25;;;18.10;90.30;;;;;;4593294;19;20030;-71
2023/10/19 07:42:02;;;;;;;21.98;16.13;;;18.10;90.40;;;;;;4593287;19;20022;-70
2023/10/19 07:43:38;;;;;;;23.33;16.50;;;18.10;90.70;;;;;;4593353;19;20107;-72
2023/10/19 07:45:13;;;;;;;20.25;15.00;;;18.10;90.60;;;;;;4593346;19;19999;-71
2023/10/19 07:46:49;;;;;;;19.20;14.57;;;18.10;90.70;;;;;;4593108;19;20010;-72
2023/10/19 07:48:24;;;;;;;17.70;14.82;;;18.10;90.70;;;;;;4593346;19;20009;-72
2023/10/19 07:49:59;;;;;;;18.20;14.57;;;18.10;90.70;;;;;;4593312;19;20324;-72
2023/10/19 07:51:36;;;;;;;22.95;15.32;;;18.10;90.80;;;;;;4593348;19;20449;-73
2023/10/19 07:53:11;;;;;;;20.45;15.98;;;18.10;90.90;;;;;;4590676;19;20030;-72
2023/10/19 07:54:45;;;;;;;19.45;14.23;;;18.10;91.00;;;;;;4592910;19;20078;-72
2023/10/19 07:56:20;;;;;;;20.30;14.15;;;18.10;91.00;;;;;;4592025;19;20006;-72
2023/10/19 07:57:54;;;;;;;16.98;13.93;;;18.10;91.00;;;;;;4591784;19;20414;-72
2023/10/19 07:59:29;;;;;;;16.45;13.55;;;18.10;91.10;;;;;;4593220;19;20417;-72
2023/10/19 08:01:05;;;;;;;17.08;13.48;;;18.10;91.10;;;;;;4592956;19;20006;-72
2023/10/19 08:02:45;;;;;;;19.10;13.25;;;18.10;91.30;;;;;;4592837;19;20013;-72
2023/10/19 08:04:19;;;;;;;17.20;13.35;;;18.10;91.30;;;;;;4592541;19;20007;-72
2023/10/19 08:05:54;;;;;;;18.33;13.77;;;18.10;91.30;;;;;;4593528;19;20425;-72
2023/10/19 08:07:29;;;;;;;18.27;14.00;;;18.10;91.40;;;;;;4592156;19;20009;-72
2023/10/19 08:09:04;;;;;;;18.20;14.05;;;18.10;91.40;;;;;;4592972;19;20001;-71
2023/10/19 08:10:40;;;;;;;18.02;13.95;;;18.10;91.40;;;;;;4593001;19;20014;-70
2023/10/19 08:12:15;;;;;;;16.83;13.52;;;18.10;91.50;;;;;;4590040;19;20062;-69
2023/10/19 08:13:49;;;;;;;19.75;14.30;;;18.10;91.50;;;;;;4590387;19;19999;-70
2023/10/19 08:15:24;;;;;;;16.25;13.55;;;18.10;91.50;;;;;;4590144;19;20034;-71
2023/10/19 08:16:58;;;;;;;16.75;13.45;;;18.10;91.60;;;;;;4589865;19;20077;-71
2023/10/19 08:18:35;;;;;;;16.75;12.63;;;18.10;91.60;;;;;;4590319;19;20082;-73
2023/10/19 08:20:32;;;;;;;15.60;13.02;;;18.10;91.90;;;;;;4590576;19;20006;-71
2023/10/19 08:22:07;;;;;;;17.80;13.95;;;18.20;91.70;;;;;;4590155;19;20457;-71
2023/10/19 08:23:41;;;;;;;19.92;14.50;;;18.20;91.80;;;;;;4590202;19;20006;-71
2023/10/19 08:25:16;;;;;;;20.23;16.75;;;18.20;91.80;;;;;;4590324;19;19998;-71
2023/10/19 08:26:50;;;;;;;21.40;17.95;;;18.20;91.80;;;;;;4589831;19;20005;-71
2023/10/19 08:28:25;;;;;;;21.98;19.20;;;18.10;91.90;;;;;;4590238;19;20104;-71
2023/10/19 08:30:03;;;;;;;21.02;17.70;;;18.10;91.90;;;;;;4590149;19;20020;-71
2023/10/19 08:31:39;;;;;;;19.65;16.88;;;18.10;91.90;;;;;;4590210;19;20006;-71
2023/10/19 08:33:13;;;;;;;19.33;15.85;;;18.10;92.00;;;;;;4590120;19;20007;-71
2023/10/19 08:34:49;;;;;;;19.60;15.07;;;18.10;92.10;;;;;;4590174;19;20065;-71
2023/10/19 08:36:23;;;;;;;20.30;15.25;;;18.10;92.20;;;;;;4589253;19;20003;-70
2023/10/19 08:37:58;;;;;;;17.67;14.30;;;18.10;92.20;;;;;;4588841;19;20002;-70
2023/10/19 08:39:36;;;;;;;17.02;12.93;;;18.10;92.30;;;;;;4590003;19;20312;-71
2023/10/19 08:41:10;;;;;;;16.05;12.57;;;18.10;92.20;;;;;;4589980;19;20022;-70